Michiana Shores, Indiana
Current Conditions -  °F | °C
As of 4:35 AM on Tuesday 27 Jan 2015 (Local Time) from KMGC Reporting Station
Overcast Overcast  
Wind Chill: 23°   Ceiling: 4100
Heat Index: 23°   Visibility: 10mi
Dew Point: 12°   Wind: 0mph
Humidity: 63%   Direction: NA
Pressure: 30.01"   Gusts: NA
Location:  41.687°N, 86.8677°W
Report Text: KMGC 271035Z AUTO 00000KT 10SM SCT026 SCT034 OVC041 M05/M11 A3001 RMK AO2
Loading
Personal Weather Stations






























Interactive Weather Map New forecast layout! Learn more

10-Day Weather Forecast

Advertisements
Track Severe Weather on mobile